createdAt,value
2018-07-09T00:00:16.549Z,1016.72
2018-07-09T00:01:16.562Z,1016.71
2018-07-09T00:02:16.524Z,1016.68
2018-07-09T00:03:16.517Z,1016.73
2018-07-09T00:04:16.503Z,1016.70
2018-07-09T00:05:16.493Z,1016.70
2018-07-09T00:06:16.533Z,1016.71
2018-07-09T00:07:16.507Z,1016.73
2018-07-09T00:08:16.460Z,1016.72
2018-07-09T00:09:16.449Z,1016.73
2018-07-09T00:10:16.438Z,1016.74
2018-07-09T00:11:16.428Z,1016.74
2018-07-09T00:12:16.414Z,1016.68
2018-07-09T00:13:16.441Z,1016.68
2018-07-09T00:14:16.393Z,1016.71
2018-07-09T00:15:16.383Z,1016.74
2018-07-09T00:16:16.376Z,1016.70
2018-07-09T00:17:16.366Z,1016.70
2018-07-09T00:18:16.353Z,1016.75
2018-07-09T00:19:16.377Z,1016.73
2018-07-09T00:20:16.329Z,1016.70
2018-07-09T00:21:16.317Z,1016.70
2018-07-09T00:22:16.306Z,1016.69
2018-07-09T00:23:16.296Z,1016.66
2018-07-09T00:24:16.284Z,1016.69
2018-07-09T00:25:16.305Z,1016.69
2018-07-09T00:26:16.263Z,1016.70
2018-07-09T00:27:16.250Z,1016.73
2018-07-09T00:28:16.250Z,1016.72
2018-07-09T00:29:16.230Z,1016.76
2018-07-09T00:30:16.218Z,1016.71
2018-07-09T00:31:16.228Z,1016.73
2018-07-09T00:32:16.249Z,1016.77
2018-07-09T00:33:16.188Z,1016.76
2018-07-09T00:34:16.176Z,1016.77
2018-07-09T00:35:16.162Z,1016.76
2018-07-09T00:36:16.153Z,1016.75
2018-07-09T00:37:16.167Z,1016.76
2018-07-09T00:38:16.129Z,1016.78
2018-07-09T00:39:16.118Z,1016.80
2018-07-09T00:40:16.112Z,1016.77
2018-07-09T00:41:16.096Z,1016.85
2018-07-09T00:42:16.085Z,1016.80
2018-07-09T00:43:16.100Z,1016.81
2018-07-09T00:44:16.065Z,1016.81
2018-07-09T00:45:16.059Z,1016.82
2018-07-09T00:46:16.044Z,1016.81
2018-07-09T00:47:16.032Z,1016.76
2018-07-09T00:48:16.024Z,1016.71
2018-07-09T00:49:16.028Z,1016.67
2018-07-09T00:50:15.999Z,1016.73
2018-07-09T00:51:15.990Z,1016.73
2018-07-09T00:52:15.977Z,1016.74
2018-07-09T00:53:15.965Z,1016.81
2018-07-09T00:54:15.954Z,1016.75
2018-07-09T00:55:15.975Z,1016.77
2018-07-09T00:56:15.936Z,1016.82
2018-07-09T00:57:15.921Z,1016.80
2018-07-09T00:58:15.910Z,1016.78
2018-07-09T00:59:15.903Z,1016.80
2018-07-09T01:00:15.890Z,1016.83
2018-07-09T01:01:15.900Z,1016.79
2018-07-09T01:02:15.866Z,1016.79
2018-07-09T01:03:15.855Z,1016.80
2018-07-09T01:04:15.843Z,1016.81
2018-07-09T01:05:15.834Z,1016.77
2018-07-09T01:06:15.825Z,1016.79
2018-07-09T01:07:15.832Z,1016.83
2018-07-09T01:08:15.801Z,1016.83
2018-07-09T01:09:15.792Z,1016.81
2018-07-09T01:10:15.787Z,1016.84
2018-07-09T01:11:15.773Z,1016.80
2018-07-09T01:12:15.756Z,1016.83
2018-07-09T01:13:15.775Z,1016.83
2018-07-09T01:14:15.738Z,1016.86
2018-07-09T01:15:15.725Z,1016.87
2018-07-09T01:16:15.713Z,1016.87
2018-07-09T01:17:15.701Z,1016.89
2018-07-09T01:18:15.692Z,1016.83
2018-07-09T01:19:15.705Z,1016.89
2018-07-09T01:20:15.704Z,1016.85
2018-07-09T01:21:15.663Z,1016.82
2018-07-09T01:22:15.650Z,1016.83
2018-07-09T01:23:15.638Z,1016.85
2018-07-09T01:24:15.626Z,1016.81
2018-07-09T01:25:15.643Z,1016.80
2018-07-09T01:26:15.605Z,1016.83
2018-07-09T01:27:15.596Z,1016.83
2018-07-09T01:28:15.583Z,1016.85
2018-07-09T01:29:15.666Z,1016.81
2018-07-09T01:30:15.563Z,1016.80
2018-07-09T01:31:15.564Z,1016.82
2018-07-09T01:32:15.539Z,1016.82
2018-07-09T01:33:15.528Z,1016.79
2018-07-09T01:34:15.518Z,1016.80
2018-07-09T01:35:15.506Z,1016.77
2018-07-09T01:36:15.522Z,1016.81
2018-07-09T01:37:15.489Z,1016.81
2018-07-09T01:38:15.475Z,1016.84
2018-07-09T01:39:15.463Z,1016.83
2018-07-09T01:40:15.453Z,1016.84
2018-07-09T01:41:15.439Z,1016.83
2018-07-09T01:42:15.454Z,1016.83
2018-07-09T01:43:15.418Z,1016.79
2018-07-09T01:44:15.407Z,1016.78
2018-07-09T01:45:15.396Z,1016.80
2018-07-09T01:46:15.386Z,1016.77
2018-07-09T01:47:15.375Z,1016.73
2018-07-09T01:48:15.408Z,1016.75
2018-07-09T01:49:15.351Z,1016.76
2018-07-09T01:50:15.342Z,1016.74
2018-07-09T01:51:15.330Z,1016.77
2018-07-09T01:52:15.318Z,1016.75
2018-07-09T01:53:15.310Z,1016.79
2018-07-09T01:54:15.323Z,1016.76
2018-07-09T01:55:15.284Z,1016.81
2018-07-09T01:56:15.272Z,1016.80
2018-07-09T01:57:15.263Z,1016.79
2018-07-09T01:58:15.251Z,1016.79
2018-07-09T01:59:15.252Z,1016.78
2018-07-09T02:00:15.250Z,1016.80
2018-07-09T02:01:15.220Z,1016.78
2018-07-09T02:02:15.209Z,1016.80
2018-07-09T02:03:15.197Z,1016.80
2018-07-09T02:04:15.185Z,1016.76
2018-07-09T02:05:15.176Z,1016.73
2018-07-09T02:06:15.217Z,1016.75
2018-07-09T02:07:15.150Z,1016.76
2018-07-09T02:08:15.141Z,1016.75
2018-07-09T02:09:15.130Z,1016.76
2018-07-09T02:10:15.130Z,1016.73
2018-07-09T02:11:15.106Z,1016.76
2018-07-09T02:12:15.113Z,1016.75
2018-07-09T02:13:15.085Z,1016.71
2018-07-09T02:14:15.076Z,1016.73
2018-07-09T02:15:15.060Z,1016.73
2018-07-09T02:16:15.052Z,1016.70
2018-07-09T02:17:15.042Z,1016.74
2018-07-09T02:18:15.042Z,1016.75
2018-07-09T02:19:15.023Z,1016.78
2018-07-09T02:20:15.007Z,1016.73
2018-07-09T02:21:15.039Z,1016.78
2018-07-09T02:22:14.981Z,1016.76
2018-07-09T02:23:14.996Z,1016.79
2018-07-09T02:24:14.958Z,1016.79
2018-07-09T02:25:14.964Z,1016.83
2018-07-09T02:26:14.937Z,1016.83
2018-07-09T02:27:14.926Z,1016.87
2018-07-09T02:28:14.915Z,1016.86
2018-07-09T02:29:14.933Z,1016.87
2018-07-09T02:30:14.891Z,1016.89
2018-07-09T02:31:14.878Z,1016.85
2018-07-09T02:32:14.873Z,1016.87
2018-07-09T02:33:14.871Z,1016.86
2018-07-09T02:34:14.845Z,1016.82
2018-07-09T02:35:14.857Z,1016.82
2018-07-09T02:36:14.825Z,1016.81
2018-07-09T02:37:14.811Z,1016.78
2018-07-09T02:38:14.799Z,1016.77
2018-07-09T02:39:14.790Z,1016.77
2018-07-09T02:40:14.781Z,1016.77
2018-07-09T02:41:14.791Z,1016.79
2018-07-09T02:42:14.758Z,1016.77
2018-07-09T02:43:14.741Z,1016.78
2018-07-09T02:44:14.731Z,1016.81
2018-07-09T02:45:14.722Z,1016.75
2018-07-09T02:46:14.708Z,1016.78
2018-07-09T02:47:14.721Z,1016.77
2018-07-09T02:48:14.688Z,1016.74
2018-07-09T02:49:14.745Z,1016.75
2018-07-09T02:50:14.678Z,1016.75
2018-07-09T02:51:14.656Z,1016.77
2018-07-09T02:52:14.644Z,1016.77
2018-07-09T02:53:14.647Z,1016.74
2018-07-09T02:54:14.618Z,1016.71
2018-07-09T02:55:14.611Z,1016.74
2018-07-09T02:56:14.601Z,1016.73
2018-07-09T02:57:14.586Z,1016.78
2018-07-09T02:58:14.584Z,1016.81
2018-07-09T02:59:14.592Z,1016.87
2018-07-09T03:00:14.554Z,1016.87
2018-07-09T03:01:14.658Z,1016.90
2018-07-09T03:02:14.532Z,1016.90
2018-07-09T03:03:14.518Z,1016.87
2018-07-09T03:04:14.509Z,1016.85
2018-07-09T03:05:14.521Z,1016.89
2018-07-09T03:06:14.514Z,1016.93
2018-07-09T03:07:14.483Z,1016.90
2018-07-09T03:08:14.464Z,1016.89
2018-07-09T03:09:14.453Z,1016.93
2018-07-09T03:10:14.447Z,1016.92
2018-07-09T03:11:14.451Z,1016.93
2018-07-09T03:12:14.423Z,1016.93
2018-07-09T03:13:14.408Z,1016.96
2018-07-09T03:14:14.397Z,1016.98
2018-07-09T03:15:14.386Z,1016.96
2018-07-09T03:16:14.377Z,1016.99
2018-07-09T03:17:14.409Z,1016.96
2018-07-09T03:18:14.356Z,1016.97
2018-07-09T03:19:14.411Z,1016.95
2018-07-09T03:20:14.332Z,1016.96
2018-07-09T03:21:14.320Z,1016.97
2018-07-09T03:22:14.311Z,1016.96
2018-07-09T03:23:14.323Z,1016.99
2018-07-09T03:24:14.289Z,1016.96
2018-07-09T03:25:14.280Z,1016.98
2018-07-09T03:26:14.268Z,1016.99
2018-07-09T03:27:14.259Z,1017.03
2018-07-09T03:28:14.254Z,1017.05
2018-07-09T03:29:14.255Z,1017.03
2018-07-09T03:30:14.230Z,1017.03
2018-07-09T03:31:14.213Z,1017.04
2018-07-09T03:32:14.202Z,1017.03
2018-07-09T03:33:14.194Z,1017.06
2018-07-09T03:34:14.181Z,1017.04
2018-07-09T03:35:14.198Z,1017.01
2018-07-09T03:36:14.160Z,1017.01
2018-07-09T03:37:14.147Z,1017.04
2018-07-09T03:38:14.138Z,1017.01
2018-07-09T03:39:14.139Z,1017.00
2018-07-09T03:40:14.116Z,1016.99
2018-07-09T03:41:14.124Z,1016.98
2018-07-09T03:42:14.094Z,1016.97
2018-07-09T03:43:14.083Z,1016.99
2018-07-09T03:44:14.071Z,1016.96
2018-07-09T03:45:14.064Z,1016.90
2018-07-09T03:46:14.050Z,1016.92
2018-07-09T03:47:14.059Z,1016.95
2018-07-09T03:48:14.029Z,1016.97
2018-07-09T03:49:14.017Z,1016.95
2018-07-09T03:50:14.005Z,1016.92
2018-07-09T03:51:13.994Z,1016.95
2018-07-09T03:52:13.992Z,1016.96
2018-07-09T03:53:14.003Z,1017.00
2018-07-09T03:54:13.959Z,1017.02
2018-07-09T03:55:13.948Z,1016.99
2018-07-09T03:56:13.938Z,1017.06
2018-07-09T03:57:13.927Z,1017.04
2018-07-09T03:58:13.918Z,1017.01
2018-07-09T03:59:13.929Z,1017.01
2018-07-09T04:00:13.895Z,1017.02
2018-07-09T04:01:13.882Z,1017.00
2018-07-09T04:02:13.900Z,1017.05
2018-07-09T04:03:13.863Z,1017.07
2018-07-09T04:04:13.850Z,1017.09
2018-07-09T04:05:13.916Z,1017.06
2018-07-09T04:06:13.829Z,1017.08
2018-07-09T04:07:13.815Z,1017.02
2018-07-09T04:08:13.805Z,1017.04
2018-07-09T04:09:13.795Z,1017.01
2018-07-09T04:10:13.783Z,1017.02
2018-07-09T04:11:13.802Z,1017.03
2018-07-09T04:12:13.761Z,1017.05
2018-07-09T04:13:13.750Z,1017.13
2018-07-09T04:14:13.742Z,1017.16
2018-07-09T04:15:13.729Z,1017.08
2018-07-09T04:16:13.718Z,1017.07
2018-07-09T04:17:13.727Z,1017.10
2018-07-09T04:18:13.695Z,1017.10
2018-07-09T04:19:13.684Z,1017.11
2018-07-09T04:20:13.673Z,1017.10
2018-07-09T04:21:13.666Z,1017.05
2018-07-09T04:22:13.653Z,1017.07
2018-07-09T04:23:13.659Z,1017.09
2018-07-09T04:24:13.628Z,1017.08
2018-07-09T04:25:13.618Z,1017.12
2018-07-09T04:26:13.627Z,1017.12
2018-07-09T04:27:13.595Z,1017.16
2018-07-09T04:28:13.583Z,1017.13
2018-07-09T04:29:13.598Z,1017.17
2018-07-09T04:30:13.561Z,1017.15
2018-07-09T04:31:13.552Z,1017.15
2018-07-09T04:32:13.540Z,1017.11
2018-07-09T04:33:13.534Z,1017.16
2018-07-09T04:34:13.628Z,1017.15
2018-07-09T04:35:13.537Z,1017.25
2018-07-09T04:36:13.496Z,1017.20
2018-07-09T04:37:13.485Z,1017.18
2018-07-09T04:38:13.492Z,1017.19
2018-07-09T04:39:13.466Z,1017.15
2018-07-09T04:40:13.458Z,1017.18
2018-07-09T04:41:13.461Z,1017.13
2018-07-09T04:42:13.431Z,1017.16
2018-07-09T04:43:13.461Z,1017.20
2018-07-09T04:44:13.410Z,1017.11
2018-07-09T04:45:13.398Z,1017.18
2018-07-09T04:46:13.384Z,1017.21
2018-07-09T04:47:13.404Z,1017.20
2018-07-09T04:48:13.363Z,1017.15
2018-07-09T04:49:13.358Z,1017.20
2018-07-09T04:50:13.348Z,1017.23
2018-07-09T04:51:13.338Z,1017.26
2018-07-09T04:52:13.321Z,1017.30
2018-07-09T04:53:13.328Z,1017.29
2018-07-09T04:54:13.301Z,1017.30
2018-07-09T04:55:13.291Z,1017.33
2018-07-09T04:56:13.277Z,1017.34
2018-07-09T04:57:13.264Z,1017.36
2018-07-09T04:58:13.253Z,1017.41
2018-07-09T04:59:13.264Z,1017.38
2018-07-09T05:00:13.232Z,1017.35
2018-07-09T05:01:13.226Z,1017.36
2018-07-09T05:02:13.212Z,1017.36
2018-07-09T05:03:13.199Z,1017.41
2018-07-09T05:04:13.195Z,1017.37
2018-07-09T05:05:13.205Z,1017.39
2018-07-09T05:06:13.166Z,1017.41
2018-07-09T05:07:13.157Z,1017.37
2018-07-09T05:08:13.149Z,1017.37
2018-07-09T05:09:13.137Z,1017.38
2018-07-09T05:10:13.126Z,1017.45
2018-07-09T05:11:13.134Z,1017.42
2018-07-09T05:12:13.104Z,1017.43
2018-07-09T05:13:13.091Z,1017.40
2018-07-09T05:14:13.082Z,1017.43
2018-07-09T05:15:13.069Z,1017.43
2018-07-09T05:16:13.065Z,1017.47
2018-07-09T05:17:13.072Z,1017.44
2018-07-09T05:18:13.037Z,1017.41
2018-07-09T05:19:13.032Z,1017.48
2018-07-09T05:20:13.018Z,1017.44
2018-07-09T05:21:13.009Z,1017.44
2018-07-09T05:22:12.999Z,1017.48
2018-07-09T05:23:13.010Z,1017.48
2018-07-09T05:24:12.972Z,1017.52
2018-07-09T05:25:12.967Z,1017.44
2018-07-09T05:26:12.953Z,1017.48
2018-07-09T05:27:12.942Z,1017.47
2018-07-09T05:28:12.928Z,1017.47
2018-07-09T05:29:12.965Z,1017.48
2018-07-09T05:30:12.908Z,1017.48
2018-07-09T05:31:12.896Z,1017.50
2018-07-09T05:32:12.885Z,1017.51
2018-07-09T05:33:12.882Z,1017.48
2018-07-09T05:34:12.864Z,1017.48
2018-07-09T05:35:12.879Z,1017.51
2018-07-09T05:36:12.844Z,1017.54
2018-07-09T05:37:12.832Z,1017.51
2018-07-09T05:38:12.820Z,1017.47
2018-07-09T05:39:12.812Z,1017.47
2018-07-09T05:40:12.803Z,1017.45
2018-07-09T05:41:12.815Z,1017.50
2018-07-09T05:42:12.780Z,1017.56
2018-07-09T05:43:12.772Z,1017.55
2018-07-09T05:44:12.758Z,1017.53
2018-07-09T05:45:12.746Z,1017.55
2018-07-09T05:46:12.736Z,1017.58
2018-07-09T05:47:12.744Z,1017.55
2018-07-09T05:48:12.713Z,1017.54
2018-07-09T05:49:12.707Z,1017.52
2018-07-09T05:50:12.696Z,1017.50
2018-07-09T05:51:12.683Z,1017.54
2018-07-09T05:52:12.674Z,1017.54
2018-07-09T05:53:12.685Z,1017.48
2018-07-09T05:54:12.657Z,1017.50
2018-07-09T05:55:12.640Z,1017.52
2018-07-09T05:56:12.632Z,1017.54
2018-07-09T05:57:12.623Z,1017.55
2018-07-09T05:58:12.610Z,1017.49
2018-07-09T05:59:12.624Z,1017.54
2018-07-09T06:00:12.595Z,1017.51
2018-07-09T06:01:12.585Z,1017.54
2018-07-09T06:02:12.566Z,1017.53
2018-07-09T06:03:12.559Z,1017.55
2018-07-09T06:04:12.553Z,1017.59
2018-07-09T06:05:12.563Z,1017.58
2018-07-09T06:06:12.526Z,1017.59
2018-07-09T06:07:12.514Z,1017.56
2018-07-09T06:08:12.504Z,1017.54
2018-07-09T06:09:12.496Z,1017.56
2018-07-09T06:10:12.478Z,1017.58
2018-07-09T06:11:12.497Z,1017.61
2018-07-09T06:12:12.458Z,1017.63
2018-07-09T06:13:12.450Z,1017.59
2018-07-09T06:14:12.439Z,1017.63
2018-07-09T06:15:12.426Z,1017.69
2018-07-09T06:16:12.415Z,1017.71
2018-07-09T06:17:12.432Z,1017.64
2018-07-09T06:18:12.393Z,1017.67
2018-07-09T06:19:12.429Z,1017.63
2018-07-09T06:20:12.375Z,1017.66
2018-07-09T06:21:12.367Z,1017.65
2018-07-09T06:22:12.351Z,1017.63
2018-07-09T06:23:12.371Z,1017.62
2018-07-09T06:24:12.331Z,1017.65
2018-07-09T06:25:12.323Z,1017.67
2018-07-09T06:26:12.312Z,1017.68
2018-07-09T06:27:12.302Z,1017.62
2018-07-09T06:28:12.291Z,1017.65
2018-07-09T06:29:12.298Z,1017.72
2018-07-09T06:30:12.267Z,1017.62
2018-07-09T06:31:12.257Z,1017.67
2018-07-09T06:32:12.256Z,1017.66
2018-07-09T06:33:12.240Z,1017.70
2018-07-09T06:34:12.229Z,1017.66
2018-07-09T06:35:12.244Z,1017.62
2018-07-09T06:36:12.216Z,1017.67
2018-07-09T06:37:12.193Z,1017.60
2018-07-09T06:38:12.181Z,1017.59
2018-07-09T06:39:12.172Z,1017.63
2018-07-09T06:40:12.161Z,1017.64
2018-07-09T06:41:12.176Z,1017.66
2018-07-09T06:42:12.141Z,1017.67
2018-07-09T06:43:12.129Z,1017.65
2018-07-09T06:44:12.119Z,1017.62
2018-07-09T06:45:12.111Z,1017.63
2018-07-09T06:46:12.099Z,1017.64
2018-07-09T06:47:12.110Z,1017.63
2018-07-09T06:48:12.408Z,1017.68
2018-07-09T06:49:12.062Z,1017.65
2018-07-09T06:50:12.062Z,1017.69
2018-07-09T06:51:12.045Z,1017.71
2018-07-09T06:52:12.032Z,1017.70
2018-07-09T06:53:12.048Z,1017.67
2018-07-09T06:54:12.010Z,1017.74
2018-07-09T06:55:12.000Z,1017.71
2018-07-09T06:56:11.993Z,1017.72
2018-07-09T06:57:11.981Z,1017.74
2018-07-09T06:58:11.970Z,1017.75
2018-07-09T06:59:11.979Z,1017.76
2018-07-09T07:00:11.953Z,1017.80
2018-07-09T07:01:11.940Z,1017.78
2018-07-09T07:02:11.990Z,1017.75
2018-07-09T07:03:11.918Z,1017.74
2018-07-09T07:04:11.909Z,1017.72
2018-07-09T07:05:11.921Z,1017.73
2018-07-09T07:06:11.888Z,1017.72
2018-07-09T07:07:11.880Z,1017.77
2018-07-09T07:08:11.866Z,1017.75
2018-07-09T07:09:11.955Z,1017.76
2018-07-09T07:10:11.892Z,1017.79
2018-07-09T07:11:11.865Z,1017.83
2018-07-09T07:12:11.840Z,1017.80
2018-07-09T07:13:11.834Z,1017.81
2018-07-09T07:14:11.832Z,1017.82
2018-07-09T07:15:11.796Z,1017.81
2018-07-09T07:16:11.787Z,1017.80
2018-07-09T07:17:11.810Z,1017.77
2018-07-09T07:18:11.769Z,1017.74
2018-07-09T07:19:11.754Z,1017.73
2018-07-09T07:20:11.744Z,1017.73
2018-07-09T07:21:11.735Z,1017.74
2018-07-09T07:22:11.746Z,1017.80
2018-07-09T07:23:11.713Z,1017.81
2018-07-09T07:24:11.711Z,1017.75
2018-07-09T07:25:11.695Z,1017.75
2018-07-09T07:26:11.683Z,1017.81
2018-07-09T07:27:11.673Z,1017.79
2018-07-09T07:28:11.689Z,1017.78
2018-07-09T07:29:11.711Z,1017.79
2018-07-09T07:30:11.643Z,1017.79
2018-07-09T07:31:11.631Z,1017.86
2018-07-09T07:32:11.623Z,1017.81
2018-07-09T07:33:11.677Z,1017.77
2018-07-09T07:34:11.623Z,1017.82
2018-07-09T07:35:11.592Z,1017.75
2018-07-09T07:36:11.582Z,1017.76
2018-07-09T07:37:11.575Z,1017.76
2018-07-09T07:38:11.562Z,1017.77
2018-07-09T07:39:11.552Z,1017.72
2018-07-09T07:40:11.567Z,1017.71
2018-07-09T07:41:11.536Z,1017.75
2018-07-09T07:42:11.524Z,1017.72
2018-07-09T07:43:11.523Z,1017.74
2018-07-09T07:44:11.552Z,1017.73
2018-07-09T07:45:11.495Z,1017.76
2018-07-09T07:46:11.510Z,1017.75
2018-07-09T07:47:11.474Z,1017.77
2018-07-09T07:48:11.466Z,1017.75
2018-07-09T07:49:11.460Z,1017.83
2018-07-09T07:50:11.521Z,1017.84
2018-07-09T07:51:11.434Z,1017.80
2018-07-09T07:52:11.446Z,1017.78
2018-07-09T07:53:11.418Z,1017.77
2018-07-09T07:54:11.407Z,1017.76
2018-07-09T07:55:11.405Z,1017.80
2018-07-09T07:56:11.387Z,1017.82
2018-07-09T07:57:11.378Z,1017.82
2018-07-09T07:58:11.389Z,1017.81
2018-07-09T07:59:11.356Z,1017.80
2018-07-09T08:00:11.351Z,1017.80
2018-07-09T08:01:11.345Z,1017.78
2018-07-09T08:02:11.331Z,1017.82
2018-07-09T08:03:11.318Z,1017.80
2018-07-09T08:04:11.333Z,1017.81
2018-07-09T08:05:11.298Z,1017.85
2018-07-09T08:06:11.289Z,1017.79
2018-07-09T08:07:11.280Z,1017.78
2018-07-09T08:08:11.292Z,1017.68
2018-07-09T08:09:11.261Z,1017.72
2018-07-09T08:10:11.314Z,1017.75
2018-07-09T08:11:11.511Z,1017.80
2018-07-09T08:13:00.557Z,1017.77
2018-07-09T08:13:27.990Z,1017.79
2018-07-09T08:14:12.211Z,1017.77
2018-07-09T08:15:11.200Z,1017.75
2018-07-09T08:16:11.216Z,1017.76
2018-07-09T08:17:11.187Z,1017.78
2018-07-09T08:18:11.178Z,1017.78
2018-07-09T08:19:11.162Z,1017.82
2018-07-09T08:20:11.152Z,1017.79
2018-07-09T08:21:11.142Z,1017.81
2018-07-09T08:22:11.184Z,1017.74
2018-07-09T08:23:11.124Z,1017.73
2018-07-09T08:24:11.119Z,1017.78
2018-07-09T08:25:11.273Z,1017.78
2018-07-09T08:26:11.098Z,1017.80
2018-07-09T08:27:11.430Z,1017.85
2018-07-09T08:28:11.571Z,1017.83
2018-07-09T08:29:11.073Z,1017.83
2018-07-09T08:30:11.063Z,1017.85
2018-07-09T08:31:11.091Z,1017.84
2018-07-09T08:32:11.045Z,1017.81
2018-07-09T08:33:11.042Z,1017.85
2018-07-09T08:34:11.051Z,1017.92
2018-07-09T08:35:11.014Z,1017.88
2018-07-09T08:36:11.004Z,1017.89
2018-07-09T08:37:10.998Z,1017.90
2018-07-09T08:38:10.991Z,1017.87
2018-07-09T08:39:10.985Z,1017.84
2018-07-09T08:40:10.993Z,1017.74
2018-07-09T08:41:10.957Z,1017.72
2018-07-09T08:42:10.947Z,1017.76
2018-07-09T08:43:10.934Z,1017.74
2018-07-09T08:44:10.938Z,1017.83
2018-07-09T08:45:10.929Z,1017.71
2018-07-09T08:46:10.939Z,1017.70
2018-07-09T08:47:10.896Z,1017.71
2018-07-09T08:48:10.905Z,1017.53
2018-07-09T08:49:10.924Z,1017.59
2018-07-09T08:50:10.871Z,1017.66
2018-07-09T08:51:10.865Z,1017.66
2018-07-09T08:52:10.870Z,1017.73
2018-07-09T08:53:10.842Z,1017.65
2018-07-09T08:54:10.829Z,1017.62
2018-07-09T08:55:10.848Z,1017.66
2018-07-09T08:56:10.813Z,1017.57
2018-07-09T08:57:10.806Z,1017.58
2018-07-09T08:58:10.823Z,1017.49
2018-07-09T08:59:10.783Z,1017.53
2018-07-09T09:00:10.780Z,1017.50
2018-07-09T09:01:10.767Z,1017.56
2018-07-09T09:02:11.213Z,1017.61
2018-07-09T09:03:10.751Z,1017.52
2018-07-09T09:04:10.769Z,1017.63
2018-07-09T09:05:10.739Z,1017.69
2018-07-09T09:06:10.724Z,1017.60
2018-07-09T09:07:10.711Z,1017.62
2018-07-09T09:08:10.705Z,1017.63
2018-07-09T09:09:10.695Z,1017.55
2018-07-09T09:10:10.841Z,1017.50
2018-07-09T09:11:10.722Z,1017.58
2018-07-09T09:12:10.661Z,1017.51
2018-07-09T09:13:10.681Z,1017.41
2018-07-09T09:14:10.644Z,1017.42
2018-07-09T09:15:10.637Z,1017.51
2018-07-09T09:16:10.643Z,1017.56
2018-07-09T09:17:10.620Z,1017.58
2018-07-09T09:18:10.605Z,1017.53
2018-07-09T09:19:10.594Z,1017.55
2018-07-09T09:20:10.608Z,1017.57
2018-07-09T09:21:10.576Z,1017.42
2018-07-09T09:22:10.566Z,1017.62
2018-07-09T09:23:10.559Z,1017.54
2018-07-09T09:24:10.548Z,1017.58
2018-07-09T09:25:10.537Z,1017.61
2018-07-09T09:26:10.552Z,1017.62
2018-07-09T09:27:10.519Z,1017.64
2018-07-09T09:28:10.511Z,1017.58
2018-07-09T09:29:10.500Z,1017.57
2018-07-09T09:30:10.491Z,1017.61
2018-07-09T09:31:10.541Z,1017.57
2018-07-09T09:32:10.504Z,1017.56
2018-07-09T09:33:10.466Z,1017.48
2018-07-09T09:34:10.468Z,1017.55
2018-07-09T09:35:10.449Z,1017.53
2018-07-09T09:36:10.438Z,1017.47
2018-07-09T09:37:10.430Z,1017.37
2018-07-09T09:38:10.441Z,1017.54
2018-07-09T09:39:10.409Z,1017.56
2018-07-09T09:40:10.401Z,1017.60
2018-07-09T09:41:10.396Z,1017.58
2018-07-09T09:42:10.384Z,1017.58
2018-07-09T09:43:10.420Z,1017.55
2018-07-09T09:44:10.385Z,1017.58
2018-07-09T09:45:10.363Z,1017.50
2018-07-09T09:46:10.348Z,1017.52
2018-07-09T09:47:10.347Z,1017.49
2018-07-09T09:48:10.328Z,1017.54
2018-07-09T09:49:10.319Z,1017.52
2018-07-09T09:50:10.338Z,1017.51
2018-07-09T09:51:10.300Z,1017.42
2018-07-09T09:52:10.290Z,1017.42
2018-07-09T09:53:10.290Z,1017.39
2018-07-09T09:54:10.280Z,1017.46
2018-07-09T09:55:10.271Z,1017.39
2018-07-09T09:56:10.280Z,1017.43
2018-07-09T09:57:10.247Z,1017.35
2018-07-09T09:58:10.244Z,1017.36
2018-07-09T09:59:10.232Z,1017.09
2018-07-09T10:00:10.227Z,1017.20
2018-07-09T10:01:10.216Z,1017.35
2018-07-09T10:02:10.237Z,1017.32
2018-07-09T10:03:10.241Z,1017.30
2018-07-09T10:04:10.192Z,1017.32
2018-07-09T10:05:10.177Z,1017.27
2018-07-09T10:06:10.228Z,1017.25
2018-07-09T10:07:10.164Z,1017.10
2018-07-09T10:08:10.176Z,1017.00
2018-07-09T10:09:10.142Z,1017.16
2018-07-09T10:10:10.135Z,1017.23
2018-07-09T10:11:10.124Z,1017.24
2018-07-09T10:12:10.116Z,1017.16
2018-07-09T10:13:10.125Z,1017.21
2018-07-09T10:14:10.125Z,1017.18
2018-07-09T10:15:10.089Z,1017.11
2018-07-09T10:16:10.096Z,1017.12
2018-07-09T10:17:10.073Z,1017.06
2018-07-09T10:18:10.246Z,1017.13
2018-07-09T10:19:10.301Z,1017.20
2018-07-09T10:20:10.072Z,1017.13
2018-07-09T10:21:10.040Z,1017.18
2018-07-09T10:22:10.029Z,1017.15
2018-07-09T10:23:10.196Z,1017.15
2018-07-09T10:24:10.011Z,1017.15
2018-07-09T10:25:10.002Z,1017.20
2018-07-09T10:26:10.022Z,1017.19
2018-07-09T10:27:09.986Z,1017.22
2018-07-09T10:28:09.978Z,1017.09
2018-07-09T10:29:09.979Z,1016.95
2018-07-09T10:30:09.958Z,1017.15
2018-07-09T10:31:09.951Z,1017.12
2018-07-09T10:32:09.989Z,1016.81
2018-07-09T10:33:09.938Z,1017.17
2018-07-09T10:34:09.927Z,1017.14
2018-07-09T10:35:09.919Z,1016.84
2018-07-09T10:36:09.910Z,1016.89
2018-07-09T10:37:09.898Z,1017.22
2018-07-09T10:38:09.921Z,1016.91
2018-07-09T10:39:09.883Z,1017.14
2018-07-09T10:40:09.873Z,1017.08
2018-07-09T10:41:09.864Z,1017.10
2018-07-09T10:42:09.869Z,1016.74
2018-07-09T10:43:09.846Z,1016.64
2018-07-09T10:44:09.865Z,1016.60
2018-07-09T10:45:09.831Z,1016.61
2018-07-09T10:46:09.818Z,1016.59
2018-07-09T10:47:09.831Z,1016.66
2018-07-09T10:48:09.804Z,1016.64
2018-07-09T10:49:09.791Z,1016.60
2018-07-09T10:50:09.807Z,1016.55
2018-07-09T10:51:09.772Z,1016.51
2018-07-09T10:52:09.763Z,1016.56
2018-07-09T10:53:09.752Z,1016.55
2018-07-09T10:54:09.742Z,1016.69
2018-07-09T10:55:09.761Z,1016.57
2018-07-09T10:56:09.747Z,1016.55
2018-07-09T10:57:09.713Z,1016.65
2018-07-09T10:58:09.705Z,1016.48
2018-07-09T10:59:09.692Z,1016.52
2018-07-09T11:00:09.681Z,1016.95
2018-07-09T11:01:09.724Z,1016.53
2018-07-09T11:02:09.691Z,1016.80
2018-07-09T11:03:09.653Z,1016.40
2018-07-09T11:04:09.643Z,1016.43
2018-07-09T11:05:09.632Z,1016.44
2018-07-09T11:06:09.622Z,1016.39
2018-07-09T11:07:09.616Z,1016.46
2018-07-09T11:08:09.625Z,1016.51
2018-07-09T11:09:09.591Z,1016.43
2018-07-09T11:10:09.596Z,1016.45
2018-07-09T11:11:09.572Z,1016.55
2018-07-09T11:12:09.564Z,1016.64
2018-07-09T11:13:09.550Z,1016.69
2018-07-09T11:14:09.560Z,1016.64
2018-07-09T11:15:09.537Z,1016.45
2018-07-09T11:16:09.535Z,1016.72
2018-07-09T11:17:09.512Z,1016.48
2018-07-09T11:18:09.501Z,1016.64
2018-07-09T11:19:09.493Z,1016.76
2018-07-09T11:20:09.509Z,1016.34
2018-07-09T11:21:09.471Z,1016.62
2018-07-09T11:22:09.463Z,1016.53
2018-07-09T11:23:09.454Z,1016.33
2018-07-09T11:24:09.443Z,1016.25
2018-07-09T11:25:09.433Z,1016.27
2018-07-09T11:26:09.442Z,1016.45
2018-07-09T11:27:09.414Z,1016.21
2018-07-09T11:28:09.409Z,1016.13
2018-07-09T11:29:09.399Z,1016.40
2018-07-09T11:30:09.382Z,1016.38
2018-07-09T11:31:09.373Z,1016.20
2018-07-09T11:32:09.384Z,1016.13
2018-07-09T11:33:09.355Z,1016.23
2018-07-09T11:34:09.346Z,1016.19
2018-07-09T11:35:09.332Z,1016.15
2018-07-09T11:36:09.421Z,1016.11
2018-07-09T11:37:09.312Z,1016.27
2018-07-09T11:38:09.330Z,1016.20
2018-07-09T11:39:09.293Z,1016.20
2018-07-09T11:40:09.311Z,1016.15
2018-07-09T11:41:09.277Z,1016.13
2018-07-09T11:42:09.281Z,1016.18
2018-07-09T11:43:09.254Z,1016.14
2018-07-09T11:44:09.304Z,1016.16
2018-07-09T11:45:09.233Z,1016.26
2018-07-09T11:46:09.226Z,1016.11
2018-07-09T11:47:09.221Z,1016.08
2018-07-09T11:48:09.200Z,1016.11
2018-07-09T11:49:09.193Z,1016.12
2018-07-09T11:50:09.211Z,1016.11
2018-07-09T11:51:09.183Z,1016.07
2018-07-09T11:52:09.172Z,1016.08
2018-07-09T11:53:09.152Z,1016.05
2018-07-09T11:54:09.136Z,1016.05
2018-07-09T11:55:09.126Z,1016.06
2018-07-09T11:56:09.144Z,1016.03
2018-07-09T11:57:09.113Z,1016.03
2018-07-09T11:58:09.096Z,1016.00
2018-07-09T11:59:09.087Z,1015.99
2018-07-09T12:00:09.076Z,1016.00
2018-07-09T12:01:09.067Z,1015.96
2018-07-09T12:02:09.080Z,1015.98
2018-07-09T12:03:09.053Z,1015.94
2018-07-09T12:04:09.035Z,1015.96
2018-07-09T12:05:09.029Z,1015.90